sensor_id;sensor_type;location;lat;lon;timestamp;temperature;humidity
19164;DHT22;9714;51.208;4.242;2023-04-03T00:02:13;6.20;99.90
19164;DHT22;9714;51.208;4.242;2023-04-03T00:04:42;6.20;99.90
19164;DHT22;9714;51.208;4.242;2023-04-03T00:07:12;6.30;99.90
19164;DHT22;9714;51.208;4.242;2023-04-03T00:09:41;6.30;99.90
19164;DHT22;9714;51.208;4.242;2023-04-03T00:12:16;6.00;99.90
19164;DHT22;9714;51.208;4.242;2023-04-03T00:14:48;6.00;99.90
19164;DHT22;9714;51.208;4.242;2023-04-03T00:17:15;5.90;99.90
19164;DHT22;9714;51.208;4.242;2023-04-03T00:20:04;5.90;99.90
19164;DHT22;9714;51.208;4.242;2023-04-03T00:22:34;5.80;99.90
19164;DHT22;9714;51.208;4.242;2023-04-03T00:25:08;5.60;99.90
19164;DHT22;9714;51.208;4.242;2023-04-03T00:27:36;5.60;99.90
19164;DHT22;9714;51.208;4.242;2023-04-03T03:00:12;4.50;99.90
19164;DHT22;9714;51.208;4.242;2023-04-03T03:02:40;4.50;99.90
19164;DHT22;9714;51.208;4.242;2023-04-03T03:05:08;4.40;99.90
19164;DHT22;9714;51.208;4.242;2023-04-03T03:07:35;4.50;99.90
19164;DHT22;9714;51.208;4.242;2023-04-03T03:10:02;4.50;99.90
19164;DHT22;9714;51.208;4.242;2023-04-03T03:12:29;4.40;99.90
19164;DHT22;9714;51.208;4.242;2023-04-03T03:14:56;4.30;99.90
19164;DHT22;9714;51.208;4.242;2023-04-03T03:23:24;4.30;99.90
19164;DHT22;9714;51.208;4.242;2023-04-03T03:31:18;4.10;99.90
19164;DHT22;9714;51.208;4.242;2023-04-03T03:40:17;4.00;99.90
19164;DHT22;9714;51.208;4.242;2023-04-03T03:42:50;3.90;99.90
19164;DHT22;9714;51.208;4.242;2023-04-03T03:45:19;3.90;99.90
19164;DHT22;9714;51.208;4.242;2023-04-03T03:51:11;3.80;99.90
19164;DHT22;9714;51.208;4.242;2023-04-03T03:53:38;3.80;99.90
19164;DHT22;9714;51.208;4.242;2023-04-03T03:56:07;3.60;99.90
19164;DHT22;9714;51.208;4.242;2023-04-03T03:58:34;3.60;99.90
19164;DHT22;9714;51.208;4.242;2023-04-03T04:01:02;3.60;99.90
19164;DHT22;9714;51.208;4.242;2023-04-03T04:03:29;3.60;99.90
19164;DHT22;9714;51.208;4.242;2023-04-03T04:05:56;3.50;99.90
19164;DHT22;9714;51.208;4.242;2023-04-03T04:08:23;3.50;99.90
19164;DHT22;9714;51.208;4.242;2023-04-03T04:10:50;3.40;99.90
19164;DHT22;9714;51.208;4.242;2023-04-03T04:13:19;3.40;99.90
19164;DHT22;9714;51.208;4.242;2023-04-03T04:15:55;3.40;99.90
19164;DHT22;9714;51.208;4.242;2023-04-03T04:18:27;3.40;99.90
19164;DHT22;9714;51.208;4.242;2023-04-03T04:20:54;3.40;99.90
19164;DHT22;9714;51.208;4.242;2023-04-03T04:23:21;3.30;99.90
19164;DHT22;9714;51.208;4.242;2023-04-03T04:25:49;3.40;99.90
19164;DHT22;9714;51.208;4.242;2023-04-03T04:28:16;3.40;99.90
19164;DHT22;9714;51.208;4.242;2023-04-03T04:30:45;3.40;99.90
19164;DHT22;9714;51.208;4.242;2023-04-03T04:33:12;3.30;99.90
19164;DHT22;9714;51.208;4.242;2023-04-03T04:39:03;3.30;99.90
19164;DHT22;9714;51.208;4.242;2023-04-03T04:41:30;3.30;99.90
19164;DHT22;9714;51.208;4.242;2023-04-03T04:43:58;3.40;99.90
19164;DHT22;9714;51.208;4.242;2023-04-03T04:46:26;3.40;99.90
19164;DHT22;9714;51.208;4.242;2023-04-03T04:48:56;3.40;99.90
19164;DHT22;9714;51.208;4.242;2023-04-03T04:51:24;3.30;99.90
19164;DHT22;9714;51.208;4.242;2023-04-03T04:53:51;3.30;99.90
19164;DHT22;9714;51.208;4.242;2023-04-03T04:56:20;3.30;99.90
19164;DHT22;9714;51.208;4.242;2023-04-03T04:58:54;3.20;99.90
19164;DHT22;9714;51.208;4.242;2023-04-03T05:01:31;3.20;99.90
19164;DHT22;9714;51.208;4.242;2023-04-03T05:04:14;3.20;99.90
19164;DHT22;9714;51.208;4.242;2023-04-03T05:06:52;3.30;99.90
19164;DHT22;9714;51.208;4.242;2023-04-03T05:09:19;3.20;99.90
19164;DHT22;9714;51.208;4.242;2023-04-03T05:11:47;3.20;99.90
19164;DHT22;9714;51.208;4.242;2023-04-03T05:14:14;3.30;99.90
19164;DHT22;9714;51.208;4.242;2023-04-03T05:16:42;3.20;99.90
19164;DHT22;9714;51.208;4.242;2023-04-03T05:19:09;3.20;99.90
19164;DHT22;9714;51.208;4.242;2023-04-03T05:21:36;3.10;99.90
19164;DHT22;9714;51.208;4.242;2023-04-03T05:24:04;3.20;99.90
19164;DHT22;9714;51.208;4.242;2023-04-03T05:26:34;3.20;99.90
19164;DHT22;9714;51.208;4.242;2023-04-03T05:29:01;3.20;99.90
19164;DHT22;9714;51.208;4.242;2023-04-03T05:31:29;3.20;99.90
19164;DHT22;9714;51.208;4.242;2023-04-03T05:33:58;3.10;99.90
19164;DHT22;9714;51.208;4.242;2023-04-03T05:36:25;3.20;99.90
19164;DHT22;9714;51.208;4.242;2023-04-03T05:38:55;3.20;99.90
19164;DHT22;9714;51.208;4.242;2023-04-03T05:41:25;3.30;99.90
19164;DHT22;9714;51.208;4.242;2023-04-03T05:47:06;3.40;99.90
19164;DHT22;9714;51.208;4.242;2023-04-03T05:49:54;3.50;99.90
19164;DHT22;9714;51.208;4.242;2023-04-03T05:52:44;3.50;99.90
19164;DHT22;9714;51.208;4.242;2023-04-03T05:55:30;3.40;99.90
19164;DHT22;9714;51.208;4.242;2023-04-03T05:58:12;3.50;99.90
19164;DHT22;9714;51.208;4.242;2023-04-03T06:00:40;3.60;99.90
19164;DHT22;9714;51.208;4.242;2023-04-03T06:03:07;3.60;99.90
19164;DHT22;9714;51.208;4.242;2023-04-03T06:05:36;3.60;99.90
19164;DHT22;9714;51.208;4.242;2023-04-03T06:08:03;3.70;99.90
19164;DHT22;9714;51.208;4.242;2023-04-03T06:10:31;3.80;99.90
19164;DHT22;9714;51.208;4.242;2023-04-03T06:12:59;3.80;99.90
19164;DHT22;9714;51.208;4.242;2023-04-03T06:15:26;4.00;99.90
19164;DHT22;9714;51.208;4.242;2023-04-03T06:17:54;4.00;99.90
19164;DHT22;9714;51.208;4.242;2023-04-03T06:20:22;3.90;99.90
19164;DHT22;9714;51.208;4.242;2023-04-03T06:22:51;4.00;99.90
19164;DHT22;9714;51.208;4.242;2023-04-03T06:25:18;4.20;99.90
19164;DHT22;9714;51.208;4.242;2023-04-03T06:27:46;4.30;99.90
19164;DHT22;9714;51.208;4.242;2023-04-03T06:30:14;4.30;99.90
19164;DHT22;9714;51.208;4.242;2023-04-03T06:32:41;4.40;99.90
19164;DHT22;9714;51.208;4.242;2023-04-03T06:35:16;4.40;99.90
19164;DHT22;9714;51.208;4.242;2023-04-03T06:38:11;4.50;99.90
19164;DHT22;9714;51.208;4.242;2023-04-03T06:44:12;5.00;99.90
19164;DHT22;9714;51.208;4.242;2023-04-03T06:47:37;5.10;99.90
19164;DHT22;9714;51.208;4.242;2023-04-03T07:04:32;6.60;99.90
19164;DHT22;9714;51.208;4.242;2023-04-03T07:07:43;6.90;99.90
19164;DHT22;9714;51.208;4.242;2023-04-03T07:11:06;7.50;99.90
19164;DHT22;9714;51.208;4.242;2023-04-03T07:31:09;8.60;99.90
19164;DHT22;9714;51.208;4.242;2023-04-03T07:33:58;8.80;99.90
19164;DHT22;9714;51.208;4.242;2023-04-03T07:38:17;9.00;99.90
19164;DHT22;9714;51.208;4.242;2023-04-03T07:40:05;9.00;99.90
19164;DHT22;9714;51.208;4.242;2023-04-03T07:42:43;9.00;99.90
19164;DHT22;9714;51.208;4.242;2023-04-03T07:46:06;9.30;99.90
19164;DHT22;9714;51.208;4.242;2023-04-03T07:50:24;9.40;99.90
19164;DHT22;9714;51.208;4.242;2023-04-03T07:52:38;9.50;99.90
19164;DHT22;9714;51.208;4.242;2023-04-03T08:02:24;9.90;99.90
19164;DHT22;9714;51.208;4.242;2023-04-03T08:05:06;9.90;99.90
19164;DHT22;9714;51.208;4.242;2023-04-03T08:07:33;10.00;99.90
19164;DHT22;9714;51.208;4.242;2023-04-03T08:10:01;10.30;99.90
19164;DHT22;9714;51.208;4.242;2023-04-03T08:12:30;10.50;99.90
19164;DHT22;9714;51.208;4.242;2023-04-03T08:15:01;10.90;99.90
19164;DHT22;9714;51.208;4.242;2023-04-03T08:17:42;10.90;99.90
19164;DHT22;9714;51.208;4.242;2023-04-03T08:20:10;11.00;99.90
19164;DHT22;9714;51.208;4.242;2023-04-03T08:22:37;11.30;99.90
19164;DHT22;9714;51.208;4.242;2023-04-03T08:25:06;11.30;99.90
19164;DHT22;9714;51.208;4.242;2023-04-03T08:27:33;11.40;99.90
19164;DHT22;9714;51.208;4.242;2023-04-03T08:30:01;11.90;99.90
19164;DHT22;9714;51.208;4.242;2023-04-03T08:32:33;12.10;99.90
19164;DHT22;9714;51.208;4.242;2023-04-03T08:35:04;12.20;99.90
19164;DHT22;9714;51.208;4.242;2023-04-03T08:37:34;12.70;99.90
19164;DHT22;9714;51.208;4.242;2023-04-03T08:40:02;12.70;99.90
19164;DHT22;9714;51.208;4.242;2023-04-03T08:42:39;12.80;99.90
19164;DHT22;9714;51.208;4.242;2023-04-03T08:45:10;13.30;99.90
19164;DHT22;9714;51.208;4.242;2023-04-03T08:47:43;13.40;99.90
19164;DHT22;9714;51.208;4.242;2023-04-03T08:50:16;13.90;99.80
19164;DHT22;9714;51.208;4.242;2023-04-03T08:52:48;13.20;98.80
19164;DHT22;9714;51.208;4.242;2023-04-03T08:55:26;13.00;99.90
19164;DHT22;9714;51.208;4.242;2023-04-03T08:57:59;13.20;99.30
19164;DHT22;9714;51.208;4.242;2023-04-03T09:00:30;13.60;96.70
19164;DHT22;9714;51.208;4.242;2023-04-03T09:02:58;13.60;95.60
19164;DHT22;9714;51.208;4.242;2023-04-03T09:05:39;13.50;94.10
19164;DHT22;9714;51.208;4.242;2023-04-03T09:08:18;12.90;94.10
19164;DHT22;9714;51.208;4.242;2023-04-03T09:10:49;13.30;93.60
19164;DHT22;9714;51.208;4.242;2023-04-03T09:13:26;13.40;93.90
19164;DHT22;9714;51.208;4.242;2023-04-03T09:15:54;13.80;93.10
19164;DHT22;9714;51.208;4.242;2023-04-03T09:18:26;14.30;91.70
19164;DHT22;9714;51.208;4.242;2023-04-03T09:21:03;14.00;91.40
19164;DHT22;9714;51.208;4.242;2023-04-03T09:23:37;14.00;92.10
19164;DHT22;9714;51.208;4.242;2023-04-03T09:26:08;14.60;90.70
19164;DHT22;9714;51.208;4.242;2023-04-03T09:28:39;14.70;89.40
19164;DHT22;9714;51.208;4.242;2023-04-03T09:31:20;14.50;88.40
19164;DHT22;9714;51.208;4.242;2023-04-03T09:33:50;14.20;89.70
19164;DHT22;9714;51.208;4.242;2023-04-03T09:36:42;14.40;88.90
19164;DHT22;9714;51.208;4.242;2023-04-03T09:39:13;14.10;90.00
19164;DHT22;9714;51.208;4.242;2023-04-03T09:41:41;14.50;87.40
19164;DHT22;9714;51.208;4.242;2023-04-03T09:44:20;13.90;86.00
19164;DHT22;9714;51.208;4.242;2023-04-03T09:46:48;14.10;87.70
19164;DHT22;9714;51.208;4.242;2023-04-03T09:49:15;14.70;85.80
19164;DHT22;9714;51.208;4.242;2023-04-03T09:51:45;14.50;85.50
19164;DHT22;9714;51.208;4.242;2023-04-03T09:54:36;15.00;84.40
19164;DHT22;9714;51.208;4.242;2023-04-03T09:57:08;15.40;81.90
19164;DHT22;9714;51.208;4.242;2023-04-03T09:59:42;15.30;82.60
19164;DHT22;9714;51.208;4.242;2023-04-03T10:02:24;15.50;81.90
19164;DHT22;9714;51.208;4.242;2023-04-03T10:04:55;16.30;78.00
19164;DHT22;9714;51.208;4.242;2023-04-03T10:07:30;16.20;77.70
19164;DHT22;9714;51.208;4.242;2023-04-03T10:09:58;15.50;75.70
19164;DHT22;9714;51.208;4.242;2023-04-03T10:12:25;15.70;76.40
19164;DHT22;9714;51.208;4.242;2023-04-03T10:14:57;16.40;78.30
19164;DHT22;9714;51.208;4.242;2023-04-03T10:17:32;17.10;74.80
19164;DHT22;9714;51.208;4.242;2023-04-03T10:20:10;16.60;73.20
19164;DHT22;9714;51.208;4.242;2023-04-03T10:22:52;17.10;74.50
19164;DHT22;9714;51.208;4.242;2023-04-03T10:25:31;16.50;73.80
19164;DHT22;9714;51.208;4.242;2023-04-03T10:28:01;16.10;73.60
19164;DHT22;9714;51.208;4.242;2023-04-03T10:30:34;16.80;71.00
19164;DHT22;9714;51.208;4.242;2023-04-03T10:33:13;16.80;69.80
19164;DHT22;9714;51.208;4.242;2023-04-03T10:35:50;17.50;70.20
19164;DHT22;9714;51.208;4.242;2023-04-03T10:38:27;17.70;68.20
19164;DHT22;9714;51.208;4.242;2023-04-03T10:41:01;17.90;67.50
19164;DHT22;9714;51.208;4.242;2023-04-03T10:43:34;18.20;64.70
19164;DHT22;9714;51.208;4.242;2023-04-03T10:46:06;18.10;62.20
19164;DHT22;9714;51.208;4.242;2023-04-03T10:48:49;17.80;64.10
19164;DHT22;9714;51.208;4.242;2023-04-03T10:51:25;17.90;59.50
19164;DHT22;9714;51.208;4.242;2023-04-03T10:54:01;17.80;60.90
19164;DHT22;9714;51.208;4.242;2023-04-03T10:56:37;18.80;60.50
19164;DHT22;9714;51.208;4.242;2023-04-03T10:59:16;19.50;56.20
19164;DHT22;9714;51.208;4.242;2023-04-03T11:01:47;19.20;59.30
19164;DHT22;9714;51.208;4.242;2023-04-03T11:04:16;18.00;59.30
19164;DHT22;9714;51.208;4.242;2023-04-03T11:06:49;18.20;60.50
19164;DHT22;9714;51.208;4.242;2023-04-03T11:09:24;18.40;59.70
19164;DHT22;9714;51.208;4.242;2023-04-03T11:11:56;18.10;59.90
19164;DHT22;9714;51.208;4.242;2023-04-03T11:14:27;18.00;59.20
19164;DHT22;9714;51.208;4.242;2023-04-03T11:17:04;18.30;56.90
19164;DHT22;9714;51.208;4.242;2023-04-03T11:19:36;18.10;55.20
19164;DHT22;9714;51.208;4.242;2023-04-03T11:22:12;17.80;57.10
19164;DHT22;9714;51.208;4.242;2023-04-03T11:24:44;18.80;55.60
19164;DHT22;9714;51.208;4.242;2023-04-03T11:27:17;19.20;54.80
19164;DHT22;9714;51.208;4.242;2023-04-03T11:29:49;19.40;53.00
19164;DHT22;9714;51.208;4.242;2023-04-03T11:32:36;19.60;52.20
19164;DHT22;9714;51.208;4.242;2023-04-03T11:35:08;19.70;53.20
19164;DHT22;9714;51.208;4.242;2023-04-03T11:37:38;18.60;53.00
19164;DHT22;9714;51.208;4.242;2023-04-03T11:40:20;18.60;52.70
19164;DHT22;9714;51.208;4.242;2023-04-03T11:42:51;18.40;53.50
19164;DHT22;9714;51.208;4.242;2023-04-03T11:45:45;18.80;53.50
19164;DHT22;9714;51.208;4.242;2023-04-03T11:48:50;19.10;52.50
19164;DHT22;9714;51.208;4.242;2023-04-03T11:51:51;19.20;52.20
19164;DHT22;9714;51.208;4.242;2023-04-03T11:54:43;19.20;51.40
19164;DHT22;9714;51.208;4.242;2023-04-03T12:00:53;19.10;50.80
19164;DHT22;9714;51.208;4.242;2023-04-03T12:03:32;19.40;49.40
19164;DHT22;9714;51.208;4.242;2023-04-03T12:12:30;19.00;49.90
19164;DHT22;9714;51.208;4.242;2023-04-03T12:21:20;19.30;49.20
19164;DHT22;9714;51.208;4.242;2023-04-03T12:24:00;19.70;49.70
19164;DHT22;9714;51.208;4.242;2023-04-03T12:26:31;19.60;48.60
19164;DHT22;9714;51.208;4.242;2023-04-03T12:29:02;18.90;49.30
19164;DHT22;9714;51.208;4.242;2023-04-03T12:31:42;19.20;48.30
19164;DHT22;9714;51.208;4.242;2023-04-03T12:34:24;19.40;47.70
19164;DHT22;9714;51.208;4.242;2023-04-03T12:37:01;20.00;46.20
19164;DHT22;9714;51.208;4.242;2023-04-03T12:39:44;21.00;46.40
19164;DHT22;9714;51.208;4.242;2023-04-03T12:42:34;20.50;44.70
19164;DHT22;9714;51.208;4.242;2023-04-03T12:45:14;20.50;46.80
19164;DHT22;9714;51.208;4.242;2023-04-03T12:47:44;20.50;46.50
19164;DHT22;9714;51.208;4.242;2023-04-03T12:50:20;20.90;45.10
19164;DHT22;9714;51.208;4.242;2023-04-03T12:52:54;20.10;45.80
19164;DHT22;9714;51.208;4.242;2023-04-03T12:55:23;20.20;46.50
19164;DHT22;9714;51.208;4.242;2023-04-03T12:57:50;20.40;44.10
19164;DHT22;9714;51.208;4.242;2023-04-03T13:00:34;20.20;45.90
19164;DHT22;9714;51.208;4.242;2023-04-03T13:03:06;20.20;44.90
19164;DHT22;9714;51.208;4.242;2023-04-03T13:05:46;19.70;45.30
19164;DHT22;9714;51.208;4.242;2023-04-03T13:08:14;20.30;46.10
19164;DHT22;9714;51.208;4.242;2023-04-03T13:10:51;20.20;45.40
19164;DHT22;9714;51.208;4.242;2023-04-03T13:13:20;20.40;46.60
19164;DHT22;9714;51.208;4.242;2023-04-03T13:15:49;20.80;45.00
19164;DHT22;9714;51.208;4.242;2023-04-03T13:18:23;20.50;43.70
19164;DHT22;9714;51.208;4.242;2023-04-03T13:20:51;20.30;42.40
19164;DHT22;9714;51.208;4.242;2023-04-03T13:23:21;20.20;42.50
19164;DHT22;9714;51.208;4.242;2023-04-03T13:25:49;20.10;42.20
19164;DHT22;9714;51.208;4.242;2023-04-03T13:28:20;20.30;42.20
19164;DHT22;9714;51.208;4.242;2023-04-03T13:30:56;19.40;42.20
19164;DHT22;9714;51.208;4.242;2023-04-03T13:33:27;19.00;42.70
19164;DHT22;9714;51.208;4.242;2023-04-03T13:35:56;19.10;42.60
19164;DHT22;9714;51.208;4.242;2023-04-03T13:38:26;19.50;44.70
19164;DHT22;9714;51.208;4.242;2023-04-03T13:40:59;20.20;42.90
19164;DHT22;9714;51.208;4.242;2023-04-03T13:43:29;20.50;42.80
19164;DHT22;9714;51.208;4.242;2023-04-03T13:46:01;21.00;42.40
19164;DHT22;9714;51.208;4.242;2023-04-03T13:48:36;20.90;40.80
19164;DHT22;9714;51.208;4.242;2023-04-03T13:51:06;19.90;41.80
19164;DHT22;9714;51.208;4.242;2023-04-03T13:53:42;19.70;42.10
19164;DHT22;9714;51.208;4.242;2023-04-03T13:56:18;19.40;43.40
19164;DHT22;9714;51.208;4.242;2023-04-03T13:59:04;20.00;42.20
19164;DHT22;9714;51.208;4.242;2023-04-03T14:01:41;19.90;42.40
19164;DHT22;9714;51.208;4.242;2023-04-03T14:04:18;19.30;42.00
19164;DHT22;9714;51.208;4.242;2023-04-03T14:06:45;19.90;42.50
19164;DHT22;9714;51.208;4.242;2023-04-03T14:09:16;19.60;42.40
19164;DHT22;9714;51.208;4.242;2023-04-03T14:11:44;20.00;42.60
19164;DHT22;9714;51.208;4.242;2023-04-03T14:14:14;19.80;43.00
19164;DHT22;9714;51.208;4.242;2023-04-03T14:16:44;20.00;42.30
19164;DHT22;9714;51.208;4.242;2023-04-03T14:19:18;19.50;43.10
19164;DHT22;9714;51.208;4.242;2023-04-03T14:21:46;19.90;43.90
19164;DHT22;9714;51.208;4.242;2023-04-03T14:24:14;20.50;43.80
19164;DHT22;9714;51.208;4.242;2023-04-03T14:26:43;21.80;42.20
19164;DHT22;9714;51.208;4.242;2023-04-03T14:29:12;22.20;41.90
19164;DHT22;9714;51.208;4.242;2023-04-03T14:31:41;21.30;40.90
19164;DHT22;9714;51.208;4.242;2023-04-03T14:34:09;21.00;41.50
19164;DHT22;9714;51.208;4.242;2023-04-03T14:36:38;20.60;42.30
19164;DHT22;9714;51.208;4.242;2023-04-03T14:39:07;20.40;40.70
19164;DHT22;9714;51.208;4.242;2023-04-03T14:41:35;20.10;42.00
19164;DHT22;9714;51.208;4.242;2023-04-03T14:44:02;20.90;42.20
19164;DHT22;9714;51.208;4.242;2023-04-03T14:46:32;21.20;41.90
19164;DHT22;9714;51.208;4.242;2023-04-03T14:49:00;20.20;42.00
19164;DHT22;9714;51.208;4.242;2023-04-03T14:51:27;19.90;42.50
19164;DHT22;9714;51.208;4.242;2023-04-03T14:53:54;18.80;42.90
19164;DHT22;9714;51.208;4.242;2023-04-03T14:56:24;19.00;42.80
19164;DHT22;9714;51.208;4.242;2023-04-03T14:58:56;19.20;42.60
19164;DHT22;9714;51.208;4.242;2023-04-03T15:01:24;19.70;43.40
19164;DHT22;9714;51.208;4.242;2023-04-03T15:03:51;19.50;42.20
19164;DHT22;9714;51.208;4.242;2023-04-03T15:06:18;19.00;43.20
19164;DHT22;9714;51.208;4.242;2023-04-03T15:08:46;19.10;43.10
19164;DHT22;9714;51.208;4.242;2023-04-03T15:11:14;19.20;43.90
19164;DHT22;9714;51.208;4.242;2023-04-03T15:13:41;20.20;43.10
19164;DHT22;9714;51.208;4.242;2023-04-03T15:16:16;20.10;41.70
19164;DHT22;9714;51.208;4.242;2023-04-03T15:18:44;20.20;41.60
19164;DHT22;9714;51.208;4.242;2023-04-03T15:21:11;20.20;41.60
19164;DHT22;9714;51.208;4.242;2023-04-03T15:23:39;20.00;41.30
19164;DHT22;9714;51.208;4.242;2023-04-03T15:26:07;20.00;41.70
19164;DHT22;9714;51.208;4.242;2023-04-03T15:28:37;20.10;41.70
19164;DHT22;9714;51.208;4.242;2023-04-03T15:31:05;20.40;41.60
19164;DHT22;9714;51.208;4.242;2023-04-03T15:33:35;20.60;42.00
19164;DHT22;9714;51.208;4.242;2023-04-03T15:36:02;20.80;41.40
19164;DHT22;9714;51.208;4.242;2023-04-03T15:38:32;20.70;42.10
19164;DHT22;9714;51.208;4.242;2023-04-03T15:40:59;20.50;42.20
19164;DHT22;9714;51.208;4.242;2023-04-03T15:43:29;20.20;42.10
19164;DHT22;9714;51.208;4.242;2023-04-03T15:45:58;19.00;42.00
19164;DHT22;9714;51.208;4.242;2023-04-03T15:48:27;18.50;43.30
19164;DHT22;9714;51.208;4.242;2023-04-03T15:50:56;18.00;42.90
19164;DHT22;9714;51.208;4.242;2023-04-03T15:53:42;18.10;44.10
19164;DHT22;9714;51.208;4.242;2023-04-03T16:02:15;18.80;43.60
19164;DHT22;9714;51.208;4.242;2023-04-03T16:05:00;17.60;44.30
19164;DHT22;9714;51.208;4.242;2023-04-03T16:07:37;17.50;45.10
19164;DHT22;9714;51.208;4.242;2023-04-03T16:10:42;17.20;45.80
19164;DHT22;9714;51.208;4.242;2023-04-03T16:14:36;17.20;45.60
19164;DHT22;9714;51.208;4.242;2023-04-03T16:16:08;16.50;45.90
19164;DHT22;9714;51.208;4.242;2023-04-03T16:18:51;17.00;46.30
19164;DHT22;9714;51.208;4.242;2023-04-03T16:21:33;17.10;47.00
19164;DHT22;9714;51.208;4.242;2023-04-03T16:24:03;17.00;46.30
19164;DHT22;9714;51.208;4.242;2023-04-03T16:26:31;16.60;47.00
19164;DHT22;9714;51.208;4.242;2023-04-03T16:28:58;16.00;47.90
19164;DHT22;9714;51.208;4.242;2023-04-03T16:31:26;15.50;48.80
19164;DHT22;9714;51.208;4.242;2023-04-03T16:33:56;15.50;48.90
19164;DHT22;9714;51.208;4.242;2023-04-03T16:36:24;16.10;48.30
19164;DHT22;9714;51.208;4.242;2023-04-03T16:38:52;16.50;48.40
19164;DHT22;9714;51.208;4.242;2023-04-03T16:41:22;16.50;48.20
19164;DHT22;9714;51.208;4.242;2023-04-03T16:43:49;15.50;47.80
19164;DHT22;9714;51.208;4.242;2023-04-03T16:46:17;15.00;48.70
19164;DHT22;9714;51.208;4.242;2023-04-03T16:48:45;15.40;48.90
19164;DHT22;9714;51.208;4.242;2023-04-03T16:51:12;15.20;48.90
19164;DHT22;9714;51.208;4.242;2023-04-03T16:53:40;15.30;49.00
19164;DHT22;9714;51.208;4.242;2023-04-03T16:56:07;15.10;48.90
19164;DHT22;9714;51.208;4.242;2023-04-03T16:58:36;14.90;50.10
19164;DHT22;9714;51.208;4.242;2023-04-03T17:01:09;14.70;50.10
19164;DHT22;9714;51.208;4.242;2023-04-03T17:03:36;14.80;50.70
19164;DHT22;9714;51.208;4.242;2023-04-03T17:06:05;14.80;50.70
19164;DHT22;9714;51.208;4.242;2023-04-03T17:08:33;14.70;50.30
19164;DHT22;9714;51.208;4.242;2023-04-03T17:11:01;14.60;50.00
19164;DHT22;9714;51.208;4.242;2023-04-03T17:13:28;14.50;50.30
19164;DHT22;9714;51.208;4.242;2023-04-03T17:15:59;14.40;50.40
19164;DHT22;9714;51.208;4.242;2023-04-03T17:18:28;14.10;51.00
19164;DHT22;9714;51.208;4.242;2023-04-03T17:20:56;13.60;51.10
19164;DHT22;9714;51.208;4.242;2023-04-03T17:23:24;13.70;51.50
19164;DHT22;9714;51.208;4.242;2023-04-03T17:25:51;13.50;52.70
19164;DHT22;9714;51.208;4.242;2023-04-03T17:28:19;13.60;53.00
19164;DHT22;9714;51.208;4.242;2023-04-03T17:30:47;13.50;53.30
19164;DHT22;9714;51.208;4.242;2023-04-03T17:33:16;13.30;53.70
19164;DHT22;9714;51.208;4.242;2023-04-03T17:35:43;13.10;54.60
19164;DHT22;9714;51.208;4.242;2023-04-03T17:38:10;13.00;54.30
19164;DHT22;9714;51.208;4.242;2023-04-03T17:40:38;13.00;55.30
19164;DHT22;9714;51.208;4.242;2023-04-03T17:43:05;12.60;55.30
19164;DHT22;9714;51.208;4.242;2023-04-03T17:45:33;12.50;55.70
19164;DHT22;9714;51.208;4.242;2023-04-03T17:48:00;12.30;56.10
19164;DHT22;9714;51.208;4.242;2023-04-03T17:50:28;12.20;57.00
19164;DHT22;9714;51.208;4.242;2023-04-03T17:52:56;12.00;56.90
19164;DHT22;9714;51.208;4.242;2023-04-03T17:55:24;11.70;57.40
19164;DHT22;9714;51.208;4.242;2023-04-03T17:57:52;11.60;57.70
19164;DHT22;9714;51.208;4.242;2023-04-03T18:00:20;11.50;57.60
19164;DHT22;9714;51.208;4.242;2023-04-03T18:02:47;11.40;58.50
19164;DHT22;9714;51.208;4.242;2023-04-03T18:05:17;11.60;58.70
19164;DHT22;9714;51.208;4.242;2023-04-03T18:07:49;11.40;59.20
19164;DHT22;9714;51.208;4.242;2023-04-03T18:10:18;11.30;60.60
19164;DHT22;9714;51.208;4.242;2023-04-03T18:12:45;11.20;60.70
19164;DHT22;9714;51.208;4.242;2023-04-03T18:15:12;11.10;61.30
19164;DHT22;9714;51.208;4.242;2023-04-03T18:17:40;10.90;62.50
19164;DHT22;9714;51.208;4.242;2023-04-03T18:20:07;10.70;61.90
19164;DHT22;9714;51.208;4.242;2023-04-03T18:22:36;10.60;62.50
19164;DHT22;9714;51.208;4.242;2023-04-03T18:25:05;10.80;62.50
19164;DHT22;9714;51.208;4.242;2023-04-03T18:27:33;10.90;62.70
19164;DHT22;9714;51.208;4.242;2023-04-03T18:30:05;10.80;63.00
19164;DHT22;9714;51.208;4.242;2023-04-03T18:32:33;10.70;63.70
19164;DHT22;9714;51.208;4.242;2023-04-03T18:35:00;10.60;63.90
19164;DHT22;9714;51.208;4.242;2023-04-03T18:37:27;10.40;64.10
19164;DHT22;9714;51.208;4.242;2023-04-03T18:39:54;10.40;65.10
19164;DHT22;9714;51.208;4.242;2023-04-03T18:42:24;10.30;65.30
19164;DHT22;9714;51.208;4.242;2023-04-03T18:44:53;10.20;65.80
19164;DHT22;9714;51.208;4.242;2023-04-03T18:47:23;10.10;66.40
19164;DHT22;9714;51.208;4.242;2023-04-03T18:49:50;10.00;67.00
19164;DHT22;9714;51.208;4.242;2023-04-03T18:52:17;10.10;67.40
19164;DHT22;9714;51.208;4.242;2023-04-03T18:54:45;9.90;67.70
19164;DHT22;9714;51.208;4.242;2023-04-03T18:57:12;9.90;68.50
19164;DHT22;9714;51.208;4.242;2023-04-03T18:59:41;9.80;68.80
19164;DHT22;9714;51.208;4.242;2023-04-03T19:02:09;9.90;69.10
19164;DHT22;9714;51.208;4.242;2023-04-03T19:04:37;9.80;69.00
19164;DHT22;9714;51.208;4.242;2023-04-03T19:07:05;9.70;69.60
19164;DHT22;9714;51.208;4.242;2023-04-03T19:09:33;9.70;69.50
19164;DHT22;9714;51.208;4.242;2023-04-03T19:12:03;9.50;70.40
19164;DHT22;9714;51.208;4.242;2023-04-03T19:14:31;9.50;71.00
19164;DHT22;9714;51.208;4.242;2023-04-03T19:16:59;9.50;71.00
19164;DHT22;9714;51.208;4.242;2023-04-03T19:19:28;9.50;71.20
19164;DHT22;9714;51.208;4.242;2023-04-03T19:21:55;9.50;71.70
19164;DHT22;9714;51.208;4.242;2023-04-03T19:24:22;9.30;72.30
19164;DHT22;9714;51.208;4.242;2023-04-03T19:26:49;9.30;72.80
19164;DHT22;9714;51.208;4.242;2023-04-03T19:29:16;9.40;73.40
19164;DHT22;9714;51.208;4.242;2023-04-03T19:31:43;9.60;73.30
19164;DHT22;9714;51.208;4.242;2023-04-03T19:34:12;9.70;72.90
19164;DHT22;9714;51.208;4.242;2023-04-03T19:36:39;9.70;72.60
19164;DHT22;9714;51.208;4.242;2023-04-03T19:39:06;9.70;72.70
19164;DHT22;9714;51.208;4.242;2023-04-03T19:41:35;9.60;72.80
19164;DHT22;9714;51.208;4.242;2023-04-03T19:44:04;9.60;72.90
19164;DHT22;9714;51.208;4.242;2023-04-03T19:46:33;9.60;72.90
19164;DHT22;9714;51.208;4.242;2023-04-03T19:49:00;9.40;74.20
19164;DHT22;9714;51.208;4.242;2023-04-03T19:51:29;9.40;73.80
19164;DHT22;9714;51.208;4.242;2023-04-03T19:53:56;9.20;74.50
19164;DHT22;9714;51.208;4.242;2023-04-03T19:56:25;9.10;74.80
19164;DHT22;9714;51.208;4.242;2023-04-03T19:58:52;9.00;74.60
19164;DHT22;9714;51.208;4.242;2023-04-03T20:01:19;9.00;75.40
19164;DHT22;9714;51.208;4.242;2023-04-03T20:03:46;9.10;75.30
19164;DHT22;9714;51.208;4.242;2023-04-03T20:06:13;9.10;74.90
19164;DHT22;9714;51.208;4.242;2023-04-03T20:08:43;9.10;74.80
19164;DHT22;9714;51.208;4.242;2023-04-03T20:11:10;9.00;75.50
19164;DHT22;9714;51.208;4.242;2023-04-03T20:13:37;8.80;75.40
19164;DHT22;9714;51.208;4.242;2023-04-03T20:16:05;8.80;76.30
19164;DHT22;9714;51.208;4.242;2023-04-03T20:18:33;8.80;76.30
19164;DHT22;9714;51.208;4.242;2023-04-03T20:21:02;8.80;77.10
19164;DHT22;9714;51.208;4.242;2023-04-03T20:23:30;8.80;76.60
19164;DHT22;9714;51.208;4.242;2023-04-03T20:25:59;8.50;77.30
19164;DHT22;9714;51.208;4.242;2023-04-03T20:28:27;8.70;77.70